sensor_id;sensor_type;location;lat;lon;timestamp;pressure;altitude;pressure_sealevel;temperature;humidity
59029;BME280;45919;51.420;5.454;2022-10-04T00:01:29;102234.72;;;12.35;87.75
59029;BME280;45919;51.420;5.454;2022-10-04T00:02:32;102241.66;;;12.33;87.79
59029;BME280;45919;51.420;5.454;2022-10-04T00:03:47;102228.59;;;12.35;87.89
59029;BME280;45919;51.420;5.454;2022-10-04T00:05:00;102227.91;;;12.40;87.90
59029;BME280;45919;51.420;5.454;2022-10-04T00:06:13;102233.00;;;12.37;87.58
59029;BME280;45919;51.420;5.454;2022-10-04T00:07:19;102232.94;;;12.34;87.58
59029;BME280;45919;51.420;5.454;2022-10-04T00:08:43;102231.13;;;12.31;87.51
59029;BME280;45919;51.420;5.454;2022-10-04T00:09:52;102236.53;;;12.38;87.64
59029;BME280;45919;51.420;5.454;2022-10-04T00:12:18;102223.41;;;12.36;87.80
59029;BME280;45919;51.420;5.454;2022-10-04T00:13:24;102214.22;;;12.22;88.09
59029;BME280;45919;51.420;5.454;2022-10-04T00:14:35;102195.59;;;12.12;87.92
59029;BME280;45919;51.420;5.454;2022-10-04T00:15:37;102229.25;;;12.27;87.44
59029;BME280;45919;51.420;5.454;2022-10-04T00:16:40;102230.97;;;12.27;87.34
59029;BME280;45919;51.420;5.454;2022-10-04T00:17:44;102233.53;;;12.25;87.44
59029;BME280;45919;51.420;5.454;2022-10-04T00:18:45;102126.06;;;11.65;87.46
59029;BME280;45919;51.420;5.454;2022-10-04T00:19:49;102223.84;;;12.23;87.56
59029;BME280;45919;51.420;5.454;2022-10-04T00:24:26;102211.59;;;12.22;87.52
59029;BME280;45919;51.420;5.454;2022-10-04T00:25:35;102216.94;;;12.25;87.81
59029;BME280;45919;51.420;5.454;2022-10-04T00:27:40;102212.22;;;12.13;87.63
59029;BME280;45919;51.420;5.454;2022-10-04T00:29:34;102221.50;;;12.32;88.07
59029;BME280;45919;51.420;5.454;2022-10-04T00:30:37;102221.16;;;12.19;87.72
59029;BME280;45919;51.420;5.454;2022-10-04T00:33:08;102210.59;;;12.16;87.47
59029;BME280;45919;51.420;5.454;2022-10-04T00:36:43;102184.09;;;12.08;87.93
59029;BME280;45919;51.420;5.454;2022-10-04T00:38:24;102153.94;;;11.92;87.90
59029;BME280;45919;51.420;5.454;2022-10-04T00:40:29;102192.81;;;12.07;87.97
59029;BME280;45919;51.420;5.454;2022-10-04T00:42:49;102196.97;;;12.01;88.04
59029;BME280;45919;51.420;5.454;2022-10-04T00:43:53;102197.72;;;11.96;88.01
59029;BME280;45919;51.420;5.454;2022-10-04T00:46:22;102158.94;;;11.84;88.15
59029;BME280;45919;51.420;5.454;2022-10-04T00:48:43;102193.41;;;11.99;88.21
59029;BME280;45919;51.420;5.454;2022-10-04T00:49:48;102185.94;;;11.82;88.20
59029;BME280;45919;51.420;5.454;2022-10-04T00:51:20;102171.78;;;11.77;88.45
59029;BME280;45919;51.420;5.454;2022-10-04T00:52:24;102193.00;;;11.86;88.65
59029;BME280;45919;51.420;5.454;2022-10-04T00:53:35;102198.94;;;11.80;88.35
59029;BME280;45919;51.420;5.454;2022-10-04T00:54:41;102166.16;;;11.64;88.52
59029;BME280;45919;51.420;5.454;2022-10-04T00:55:55;102205.28;;;11.87;88.72
59029;BME280;45919;51.420;5.454;2022-10-04T00:57:37;102174.47;;;11.78;88.66
59029;BME280;45919;51.420;5.454;2022-10-04T00:59:01;102199.84;;;11.81;88.55
59029;BME280;45919;51.420;5.454;2022-10-04T01:00:13;102204.19;;;11.80;88.47
59029;BME280;45919;51.420;5.454;2022-10-04T01:01:19;102187.41;;;11.74;88.95
59029;BME280;45919;51.420;5.454;2022-10-04T01:02:37;102188.47;;;11.80;89.22
59029;BME280;45919;51.420;5.454;2022-10-04T01:03:45;102192.50;;;11.69;89.01
59029;BME280;45919;51.420;5.454;2022-10-04T01:05:00;102187.47;;;11.77;89.09
59029;BME280;45919;51.420;5.454;2022-10-04T01:06:05;102185.47;;;11.68;88.92
59029;BME280;45919;51.420;5.454;2022-10-04T01:07:10;102186.31;;;11.67;88.98
59029;BME280;45919;51.420;5.454;2022-10-04T01:08:17;102182.72;;;11.63;88.90
59029;BME280;45919;51.420;5.454;2022-10-04T01:09:23;102180.78;;;11.85;88.85
59029;BME280;45919;51.420;5.454;2022-10-04T01:11:38;102183.84;;;11.71;88.96
59029;BME280;45919;51.420;5.454;2022-10-04T01:12:53;102179.41;;;11.69;88.88
59029;BME280;45919;51.420;5.454;2022-10-04T01:16:31;102136.69;;;11.42;88.69
59029;BME280;45919;51.420;5.454;2022-10-04T01:17:34;102138.25;;;11.37;88.12
59029;BME280;45919;51.420;5.454;2022-10-04T01:18:36;102147.94;;;11.40;88.74
59029;BME280;45919;51.420;5.454;2022-10-04T01:19:38;102147.63;;;11.30;88.41
59029;BME280;45919;51.420;5.454;2022-10-04T01:23:08;102163.22;;;11.55;88.49
59029;BME280;45919;51.420;5.454;2022-10-04T01:24:16;102148.31;;;11.51;88.67
59029;BME280;45919;51.420;5.454;2022-10-04T01:25:56;102167.09;;;11.66;88.89
59029;BME280;45919;51.420;5.454;2022-10-04T01:26:59;102157.78;;;11.47;88.56
59029;BME280;45919;51.420;5.454;2022-10-04T01:28:01;102061.53;;;10.83;88.91
59029;BME280;45919;51.420;5.454;2022-10-04T01:29:13;102160.41;;;11.47;89.12
59029;BME280;45919;51.420;5.454;2022-10-04T01:30:16;102160.28;;;11.44;89.46
59029;BME280;45919;51.420;5.454;2022-10-04T01:31:17;102137.00;;;11.26;89.22
59029;BME280;45919;51.420;5.454;2022-10-04T01:32:19;102141.47;;;11.28;89.35
59029;BME280;45919;51.420;5.454;2022-10-04T01:33:21;102146.97;;;11.36;89.74
59029;BME280;45919;51.420;5.454;2022-10-04T01:34:25;102125.56;;;11.22;89.74
59029;BME280;45919;51.420;5.454;2022-10-04T01:35:27;102164.50;;;11.40;89.52
59029;BME280;45919;51.420;5.454;2022-10-04T01:36:29;102115.84;;;11.18;89.35
59029;BME280;45919;51.420;5.454;2022-10-04T01:37:31;102146.16;;;11.39;89.42
59029;BME280;45919;51.420;5.454;2022-10-04T01:38:33;102146.78;;;11.31;89.44
59029;BME280;45919;51.420;5.454;2022-10-04T01:39:34;102155.78;;;11.40;89.58
59029;BME280;45919;51.420;5.454;2022-10-04T01:40:43;102057.44;;;10.91;89.36
59029;BME280;45919;51.420;5.454;2022-10-04T01:43:08;102151.66;;;11.46;89.44
59029;BME280;45919;51.420;5.454;2022-10-04T01:44:43;102157.91;;;11.52;89.56
59029;BME280;45919;51.420;5.454;2022-10-04T01:45:50;102147.81;;;11.36;89.26
59029;BME280;45919;51.420;5.454;2022-10-04T01:46:55;102135.34;;;11.28;89.10
59029;BME280;45919;51.420;5.454;2022-10-04T01:48:00;102148.47;;;11.29;89.51
59029;BME280;45919;51.420;5.454;2022-10-04T01:49:11;102148.59;;;11.32;89.58
59029;BME280;45919;51.420;5.454;2022-10-04T01:50:19;102152.88;;;11.30;89.84
59029;BME280;45919;51.420;5.454;2022-10-04T01:51:33;102149.44;;;11.33;89.82
59029;BME280;45919;51.420;5.454;2022-10-04T01:52:41;102147.59;;;11.29;89.54
59029;BME280;45919;51.420;5.454;2022-10-04T01:53:55;102139.84;;;11.32;89.48
59029;BME280;45919;51.420;5.454;2022-10-04T01:55:06;102122.69;;;11.14;89.26
59029;BME280;45919;51.420;5.454;2022-10-04T01:56:13;102140.44;;;11.23;89.02
59029;BME280;45919;51.420;5.454;2022-10-04T01:57:26;102146.59;;;11.25;89.46
59029;BME280;45919;51.420;5.454;2022-10-04T01:58:44;102142.09;;;11.21;89.41
59029;BME280;45919;51.420;5.454;2022-10-04T01:59:50;102146.34;;;11.17;88.97
59029;BME280;45919;51.420;5.454;2022-10-04T02:00:58;102120.66;;;11.05;89.37
59029;BME280;45919;51.420;5.454;2022-10-04T02:02:07;102122.38;;;11.05;89.51
59029;BME280;45919;51.420;5.454;2022-10-04T02:03:14;102147.31;;;11.21;89.79
59029;BME280;45919;51.420;5.454;2022-10-04T02:04:27;102124.28;;;11.09;90.01
59029;BME280;45919;51.420;5.454;2022-10-04T02:05:32;102144.66;;;11.19;89.72
59029;BME280;45919;51.420;5.454;2022-10-04T02:06:38;102144.56;;;11.16;89.65
59029;BME280;45919;51.420;5.454;2022-10-04T02:07:41;102147.09;;;11.15;90.15
59029;BME280;45919;51.420;5.454;2022-10-04T02:08:48;102127.81;;;11.11;89.81
59029;BME280;45919;51.420;5.454;2022-10-04T02:09:54;102137.63;;;11.18;90.15
59029;BME280;45919;51.420;5.454;2022-10-04T02:10:56;102139.25;;;11.15;89.92
59029;BME280;45919;51.420;5.454;2022-10-04T02:11:59;102124.16;;;11.06;90.01
59029;BME280;45919;51.420;5.454;2022-10-04T02:13:02;102120.81;;;11.10;90.63
59029;BME280;45919;51.420;5.454;2022-10-04T02:14:13;102093.31;;;10.95;90.48
59029;BME280;45919;51.420;5.454;2022-10-04T02:15:18;102131.31;;;11.11;89.85
59029;BME280;45919;51.420;5.454;2022-10-04T02:16:21;102133.88;;;11.10;89.83
59029;BME280;45919;51.420;5.454;2022-10-04T02:17:28;102128.59;;;11.08;89.72
59029;BME280;45919;51.420;5.454;2022-10-04T02:18:30;102138.13;;;11.06;90.21
59029;BME280;45919;51.420;5.454;2022-10-04T02:19:35;102136.34;;;11.05;89.92
59029;BME280;45919;51.420;5.454;2022-10-04T02:20:39;102130.22;;;11.05;90.14
59029;BME280;45919;51.420;5.454;2022-10-04T02:21:42;102109.03;;;10.97;90.20
59029;BME280;45919;51.420;5.454;2022-10-04T02:22:48;102122.38;;;11.05;90.29
59029;BME280;45919;51.420;5.454;2022-10-04T02:23:51;102118.78;;;11.01;90.16
59029;BME280;45919;51.420;5.454;2022-10-04T02:24:55;102120.44;;;10.99;89.98
59029;BME280;45919;51.420;5.454;2022-10-04T02:25:58;102093.84;;;10.85;90.36
59029;BME280;45919;51.420;5.454;2022-10-04T02:27:00;102121.31;;;10.98;90.31
59029;BME280;45919;51.420;5.454;2022-10-04T02:28:02;102112.56;;;10.97;90.54
59029;BME280;45919;51.420;5.454;2022-10-04T02:29:04;102111.50;;;10.92;90.66
59029;BME280;45919;51.420;5.454;2022-10-04T02:30:09;102066.34;;;10.70;90.67
59029;BME280;45919;51.420;5.454;2022-10-04T02:31:11;102108.84;;;10.91;90.69
59029;BME280;45919;51.420;5.454;2022-10-04T02:32:52;102093.84;;;10.85;90.57
59029;BME280;45919;51.420;5.454;2022-10-04T02:34:00;102102.72;;;10.90;90.47
59029;BME280;45919;51.420;5.454;2022-10-04T02:35:02;102105.28;;;10.88;90.86
59029;BME280;45919;51.420;5.454;2022-10-04T02:36:06;102101.78;;;10.88;90.75
59029;BME280;45919;51.420;5.454;2022-10-04T02:37:10;102074.91;;;10.66;90.83
59029;BME280;45919;51.420;5.454;2022-10-04T02:38:24;102067.22;;;10.71;91.09
59029;BME280;45919;51.420;5.454;2022-10-04T02:39:31;102097.41;;;10.87;91.01
59029;BME280;45919;51.420;5.454;2022-10-04T02:40:44;102085.88;;;10.82;90.76
59029;BME280;45919;51.420;5.454;2022-10-04T02:41:52;102089.44;;;10.84;90.84
59029;BME280;45919;51.420;5.454;2022-10-04T02:43:08;102077.94;;;10.79;90.96
59029;BME280;45919;51.420;5.454;2022-10-04T02:44:18;102086.72;;;10.81;90.89
59029;BME280;45919;51.420;5.454;2022-10-04T02:45:41;102066.38;;;10.72;90.95
59029;BME280;45919;51.420;5.454;2022-10-04T02:49:35;102069.91;;;10.72;91.07
59029;BME280;45919;51.420;5.454;2022-10-04T02:50:49;102069.00;;;10.72;90.79
59029;BME280;45919;51.420;5.454;2022-10-04T02:51:53;102071.13;;;10.84;90.88
59029;BME280;45919;51.420;5.454;2022-10-04T02:53:15;102069.06;;;10.73;90.72
59029;BME280;45919;51.420;5.454;2022-10-04T02:54:45;102064.69;;;10.72;90.75
59029;BME280;45919;51.420;5.454;2022-10-04T02:55:49;102062.47;;;10.59;90.62
59029;BME280;45919;51.420;5.454;2022-10-04T02:56:51;102067.59;;;10.56;90.74
59029;BME280;45919;51.420;5.454;2022-10-04T02:57:57;102047.34;;;10.50;90.91
59029;BME280;45919;51.420;5.454;2022-10-04T02:59:03;102054.53;;;10.56;90.81
59029;BME280;45919;51.420;5.454;2022-10-04T03:01:24;102027.75;;;10.38;90.96
59029;BME280;45919;51.420;5.454;2022-10-04T03:02:29;102049.06;;;10.49;90.99
59029;BME280;45919;51.420;5.454;2022-10-04T03:03:33;102045.38;;;10.44;90.69
59029;BME280;45919;51.420;5.454;2022-10-04T03:04:38;102021.22;;;10.25;91.04
59029;BME280;45919;51.420;5.454;2022-10-04T03:05:41;102034.88;;;10.43;90.94
59029;BME280;45919;51.420;5.454;2022-10-04T03:06:43;102041.91;;;10.45;91.28
59029;BME280;45919;51.420;5.454;2022-10-04T03:07:46;102041.09;;;10.46;91.13
59029;BME280;45919;51.420;5.454;2022-10-04T03:08:52;102013.56;;;10.30;91.06
59029;BME280;45919;51.420;5.454;2022-10-04T03:09:54;102030.28;;;10.35;90.96
59029;BME280;45919;51.420;5.454;2022-10-04T03:10:57;102035.75;;;10.43;91.25
59029;BME280;45919;51.420;5.454;2022-10-04T03:12:00;102051.31;;;10.40;91.18
59029;BME280;45919;51.420;5.454;2022-10-04T03:13:02;102035.66;;;10.40;91.38
59029;BME280;45919;51.420;5.454;2022-10-04T03:14:08;102007.34;;;10.26;91.38
59029;BME280;45919;51.420;5.454;2022-10-04T03:15:11;101989.50;;;10.14;90.97
59029;BME280;45919;51.420;5.454;2022-10-04T03:16:14;101993.94;;;10.17;91.27
59029;BME280;45919;51.420;5.454;2022-10-04T03:17:16;102010.66;;;10.22;90.80
59029;BME280;45919;51.420;5.454;2022-10-04T03:18:18;102021.44;;;10.32;91.41
59029;BME280;45919;51.420;5.454;2022-10-04T03:19:22;102035.50;;;10.35;91.28
59029;BME280;45919;51.420;5.454;2022-10-04T03:20:24;102025.81;;;10.33;91.35
59029;BME280;45919;51.420;5.454;2022-10-04T03:21:26;102020.63;;;10.34;91.32
59029;BME280;45919;51.420;5.454;2022-10-04T03:22:28;102021.50;;;10.33;91.74
59029;BME280;45919;51.420;5.454;2022-10-04T03:23:30;102027.53;;;10.32;91.39
59029;BME280;45919;51.420;5.454;2022-10-04T03:24:37;102019.59;;;10.29;91.57
59029;BME280;45919;51.420;5.454;2022-10-04T03:25:57;101998.66;;;10.27;91.58
59029;BME280;45919;51.420;5.454;2022-10-04T03:27:06;102006.34;;;10.23;91.11
59029;BME280;45919;51.420;5.454;2022-10-04T03:28:09;102027.34;;;10.26;91.09
59029;BME280;45919;51.420;5.454;2022-10-04T03:29:13;102024.75;;;10.27;91.56
59029;BME280;45919;51.420;5.454;2022-10-04T03:30:16;102024.75;;;10.27;91.47
59029;BME280;45919;51.420;5.454;2022-10-04T03:31:20;102026.44;;;10.25;91.16
59029;BME280;45919;51.420;5.454;2022-10-04T03:32:22;102034.25;;;10.25;91.86
59029;BME280;45919;51.420;5.454;2022-10-04T03:33:25;102027.38;;;10.27;91.83
59029;BME280;45919;51.420;5.454;2022-10-04T03:34:39;102027.63;;;10.34;91.83
59029;BME280;45919;51.420;5.454;2022-10-04T03:35:44;101950.97;;;9.83;91.30
59029;BME280;45919;51.420;5.454;2022-10-04T03:36:50;102022.88;;;10.23;91.24
59029;BME280;45919;51.420;5.454;2022-10-04T03:37:54;102015.78;;;10.19;91.12
59029;BME280;45919;51.420;5.454;2022-10-04T03:38:57;102031.50;;;10.21;91.16
59029;BME280;45919;51.420;5.454;2022-10-04T03:40:00;102019.31;;;10.21;91.45
59029;BME280;45919;51.420;5.454;2022-10-04T03:41:03;102014.84;;;10.17;90.96
59029;BME280;45919;51.420;5.454;2022-10-04T03:42:18;102012.38;;;10.22;90.92
59029;BME280;45919;51.420;5.454;2022-10-04T03:43:28;102022.00;;;10.23;91.22
59029;BME280;45919;51.420;5.454;2022-10-04T03:44:34;102011.19;;;10.12;90.81
59029;BME280;45919;51.420;5.454;2022-10-04T03:45:36;101976.47;;;9.90;91.11
59029;BME280;45919;51.420;5.454;2022-10-04T03:46:40;102016.41;;;10.12;91.03
59029;BME280;45919;51.420;5.454;2022-10-04T03:47:44;101955.91;;;9.75;91.22
59029;BME280;45919;51.420;5.454;2022-10-04T03:48:50;101948.88;;;9.74;91.05
59029;BME280;45919;51.420;5.454;2022-10-04T03:49:54;102009.38;;;10.11;90.90
59029;BME280;45919;51.420;5.454;2022-10-04T03:50:59;101988.00;;;9.97;91.10
59029;BME280;45919;51.420;5.454;2022-10-04T03:52:03;102016.25;;;10.09;91.49
59029;BME280;45919;51.420;5.454;2022-10-04T03:53:17;102008.66;;;10.15;91.45
59029;BME280;45919;51.420;5.454;2022-10-04T03:54:25;102001.41;;;10.06;91.41
59029;BME280;45919;51.420;5.454;2022-10-04T03:55:41;101996.38;;;10.12;90.89
59029;BME280;45919;51.420;5.454;2022-10-04T03:56:44;101998.84;;;10.08;91.63
59029;BME280;45919;51.420;5.454;2022-10-04T03:57:46;101998.78;;;10.06;91.55
59029;BME280;45919;51.420;5.454;2022-10-04T03:58:49;101997.88;;;10.05;91.04
59029;BME280;45919;51.420;5.454;2022-10-04T03:59:51;102001.41;;;10.06;91.37
59029;BME280;45919;51.420;5.454;2022-10-04T04:02:49;101990.28;;;10.12;91.72
59029;BME280;45919;51.420;5.454;2022-10-04T04:05:18;101994.28;;;10.02;91.32
59029;BME280;45919;51.420;5.454;2022-10-04T04:06:22;101987.09;;;9.96;91.10
59029;BME280;45919;51.420;5.454;2022-10-04T04:07:46;101991.16;;;10.12;91.53
59029;BME280;45919;51.420;5.454;2022-10-04T04:08:53;102000.34;;;10.01;91.76
59029;BME280;45919;51.420;5.454;2022-10-04T04:11:02;102000.34;;;10.01;92.01
59029;BME280;45919;51.420;5.454;2022-10-04T04:12:09;101996.03;;;10.03;91.94
59029;BME280;45919;51.420;5.454;2022-10-04T04:13:24;101996.94;;;10.03;91.97
59029;BME280;45919;51.420;5.454;2022-10-04T04:14:27;102006.34;;;9.98;92.13
59029;BME280;45919;51.420;5.454;2022-10-04T04:15:31;101998.56;;;10.00;91.75
59029;BME280;45919;51.420;5.454;2022-10-04T04:16:35;101981.69;;;9.90;92.06
59029;BME280;45919;51.420;5.454;2022-10-04T04:17:39;101994.13;;;9.97;91.93
59029;BME280;45919;51.420;5.454;2022-10-04T04:18:43;101995.03;;;9.99;91.86
59029;BME280;45919;51.420;5.454;2022-10-04T04:19:45;101996.66;;;9.96;92.17
59029;BME280;45919;51.420;5.454;2022-10-04T04:20:53;101979.06;;;9.90;92.02
59029;BME280;45919;51.420;5.454;2022-10-04T04:21:59;101999.41;;;9.99;91.71
59029;BME280;45919;51.420;5.454;2022-10-04T04:23:04;101996.19;;;10.06;91.88
59029;BME280;45919;51.420;5.454;2022-10-04T04:24:19;101988.16;;;10.01;91.49
59029;BME280;45919;51.420;5.454;2022-10-04T04:25:24;101998.72;;;10.04;91.38
59029;BME280;45919;51.420;5.454;2022-10-04T04:27:40;101993.50;;;10.04;91.02
59029;BME280;45919;51.420;5.454;2022-10-04T04:28:48;101986.59;;;10.07;91.14
59029;BME280;45919;51.420;5.454;2022-10-04T04:29:51;101971.28;;;9.91;91.47
59029;BME280;45919;51.420;5.454;2022-10-04T04:31:07;101943.25;;;9.86;91.74
59029;BME280;45919;51.420;5.454;2022-10-04T04:33:29;101992.06;;;10.13;91.49
59029;BME280;45919;51.420;5.454;2022-10-04T04:34:34;101991.09;;;10.11;91.40
59029;BME280;45919;51.420;5.454;2022-10-04T04:35:45;101977.63;;;9.98;91.42
59029;BME280;45919;51.420;5.454;2022-10-04T04:36:47;101999.72;;;10.08;91.52
59029;BME280;45919;51.420;5.454;2022-10-04T04:38:24;102002.88;;;10.24;91.62
59029;BME280;45919;51.420;5.454;2022-10-04T04:39:27;101973.00;;;9.91;90.93
59029;BME280;45919;51.420;5.454;2022-10-04T04:40:41;101993.28;;;9.98;91.12
59029;BME280;45919;51.420;5.454;2022-10-04T04:41:43;101977.28;;;9.89;90.94
59029;BME280;45919;51.420;5.454;2022-10-04T04:42:48;101995.94;;;10.00;91.01
59029;BME280;45919;51.420;5.454;2022-10-04T04:43:50;101994.19;;;9.99;91.10
59029;BME280;45919;51.420;5.454;2022-10-04T04:45:05;102000.44;;;10.04;91.22
59029;BME280;45919;51.420;5.454;2022-10-04T04:46:15;101968.41;;;9.84;91.06
59029;BME280;45919;51.420;5.454;2022-10-04T04:47:31;101985.28;;;9.93;91.33
59029;BME280;45919;51.420;5.454;2022-10-04T04:48:35;101971.00;;;9.84;91.03
59029;BME280;45919;51.420;5.454;2022-10-04T04:49:38;101979.94;;;9.90;91.10
59029;BME280;45919;51.420;5.454;2022-10-04T04:50:41;101993.28;;;9.98;90.98
59029;BME280;45919;51.420;5.454;2022-10-04T04:51:47;101970.28;;;9.88;91.30
59029;BME280;45919;51.420;5.454;2022-10-04T04:52:53;101992.50;;;10.01;91.02
59029;BME280;45919;51.420;5.454;2022-10-04T04:53:56;101967.69;;;9.88;91.21
59029;BME280;45919;51.420;5.454;2022-10-04T04:54:58;101992.50;;;10.01;90.96
59029;BME280;45919;51.420;5.454;2022-10-04T04:56:04;101980.47;;;10.04;91.15
59029;BME280;45919;51.420;5.454;2022-10-04T04:57:14;101927.16;;;9.73;91.18
59029;BME280;45919;51.420;5.454;2022-10-04T04:58:26;101981.31;;;10.05;91.29
59029;BME280;45919;51.420;5.454;2022-10-04T04:59:30;101981.28;;;10.03;91.15
59029;BME280;45919;51.420;5.454;2022-10-04T05:00:35;101970.72;;;10.00;91.27
59029;BME280;45919;51.420;5.454;2022-10-04T05:01:46;101960.28;;;10.00;91.01
59029;BME280;45919;51.420;5.454;2022-10-04T05:02:54;101965.78;;;10.08;91.03
59029;BME280;45919;51.420;5.454;2022-10-04T05:04:05;101967.50;;;10.08;91.03
59029;BME280;45919;51.420;5.454;2022-10-04T05:05:22;101956.00;;;10.02;91.08
59029;BME280;45919;51.420;5.454;2022-10-04T05:06:26;101965.78;;;10.08;91.12
59029;BME280;45919;51.420;5.454;2022-10-04T05:07:27;101964.84;;;10.06;91.23
59029;BME280;45919;51.420;5.454;2022-10-04T05:08:31;101970.13;;;10.08;91.43
59029;BME280;45919;51.420;5.454;2022-10-04T05:09:37;101969.22;;;10.07;91.52
59029;BME280;45919;51.420;5.454;2022-10-04T05:10:45;101909.03;;;9.78;91.31
59029;BME280;45919;51.420;5.454;2022-10-04T05:11:52;101967.56;;;10.09;91.30
59029;BME280;45919;51.420;5.454;2022-10-04T05:12:55;101966.59;;;10.07;91.16
59029;BME280;45919;51.420;5.454;2022-10-04T05:14:02;101964.94;;;10.09;91.31
59029;BME280;45919;51.420;5.454;2022-10-04T05:15:08;101959.63;;;10.06;91.03
59029;BME280;45919;51.420;5.454;2022-10-04T05:16:18;101956.00;;;10.02;90.96
59029;BME280;45919;51.420;5.454;2022-10-04T05:17:24;101946.19;;;9.95;90.88
59029;BME280;45919;51.420;5.454;2022-10-04T05:18:31;101969.41;;;10.12;91.00
59029;BME280;45919;51.420;5.454;2022-10-04T05:19:38;101967.59;;;10.11;90.90
59029;BME280;45919;51.420;5.454;2022-10-04T05:20:44;101971.88;;;10.09;90.87
59029;BME280;45919;51.420;5.454;2022-10-04T05:21:50;101962.06;;;10.01;90.74
59029;BME280;45919;51.420;5.454;2022-10-04T05:22:53;101969.13;;;10.04;90.76
59029;BME280;45919;51.420;5.454;2022-10-04T05:23:57;101967.41;;;10.04;90.63
59029;BME280;45919;51.420;5.454;2022-10-04T05:25:15;101966.47;;;10.02;90.55
59029;BME280;45919;51.420;5.454;2022-10-04T05:26:25;101969.06;;;10.02;90.44
59029;BME280;45919;51.420;5.454;2022-10-04T05:27:41;101927.41;;;9.81;90.75
59029;BME280;45919;51.420;5.454;2022-10-04T05:28:45;101973.16;;;9.96;90.27
59029;BME280;45919;51.420;5.454;2022-10-04T05:30:07;101976.91;;;10.02;90.64
59029;BME280;45919;51.420;5.454;2022-10-04T05:31:25;101985.34;;;9.95;90.57
59029;BME280;45919;51.420;5.454;2022-10-04T05:33:57;101959.63;;;9.81;90.54
59029;BME280;45919;51.420;5.454;2022-10-04T05:35:00;101931.94;;;9.61;90.20
59029;BME280;45919;51.420;5.454;2022-10-04T05:38:47;101975.47;;;9.86;90.87
59029;BME280;45919;51.420;5.454;2022-10-04T05:42:36;101983.06;;;9.80;90.30
59029;BME280;45919;51.420;5.454;2022-10-04T05:43:48;101962.44;;;9.63;90.40
59029;BME280;45919;51.420;5.454;2022-10-04T05:44:55;101951.84;;;9.59;90.75
59029;BME280;45919;51.420;5.454;2022-10-04T05:46:14;101943.13;;;9.58;90.70
59029;BME280;45919;51.420;5.454;2022-10-04T05:47:17;101973.22;;;9.73;90.65
59029;BME280;45919;51.420;5.454;2022-10-04T05:48:24;101975.72;;;9.69;90.00
59029;BME280;45919;51.420;5.454;2022-10-04T05:49:31;101951.91;;;9.60;90.65
59029;BME280;45919;51.420;5.454;2022-10-04T05:50:37;101940.28;;;9.52;90.76
59029;BME280;45919;51.420;5.454;2022-10-04T05:51:48;101971.63;;;9.76;90.65
59029;BME280;45919;51.420;5.454;2022-10-04T05:52:51;101968.75;;;9.70;90.80
59029;BME280;45919;51.420;5.454;2022-10-04T05:53:54;101931.38;;;9.47;90.60
59029;BME280;45919;51.420;5.454;2022-10-04T05:55:19;101977.13;;;9.84;90.82
59029;BME280;45919;51.420;5.454;2022-10-04T05:56:51;101975.31;;;9.83;90.64
59029;BME280;45919;51.420;5.454;2022-10-04T05:58:27;101978.00;;;9.85;90.71
59029;BME280;45919;51.420;5.454;2022-10-04T06:01:19;101972.63;;;9.80;90.68
59029;BME280;45919;51.420;5.454;2022-10-04T06:03:10;101977.94;;;9.83;90.88
59029;BME280;45919;51.420;5.454;2022-10-04T06:05:53;101987.66;;;9.87;90.98
59029;BME280;45919;51.420;5.454;2022-10-04T06:07:17;101989.44;;;9.88;90.63
59029;BME280;45919;51.420;5.454;2022-10-04T06:08:50;101991.19;;;9.88;90.86
59029;BME280;45919;51.420;5.454;2022-10-04T06:18:20;101997.59;;;9.98;90.50
59029;BME280;45919;51.420;5.454;2022-10-04T06:19:44;101993.84;;;9.89;90.14
59029;BME280;45919;51.420;5.454;2022-10-04T06:21:27;101994.56;;;10.10;90.62
59029;BME280;45919;51.420;5.454;2022-10-04T06:22:29;101996.78;;;9.99;90.28
59029;BME280;45919;51.420;5.454;2022-10-04T06:23:34;101997.72;;;10.01;90.46
59029;BME280;45919;51.420;5.454;2022-10-04T06:24:40;101987.91;;;9.93;90.32
59029;BME280;45919;51.420;5.454;2022-10-04T06:25:47;101991.78;;;10.05;90.52
59029;BME280;45919;51.420;5.454;2022-10-04T06:26:53;101993.75;;;10.12;90.11
59029;BME280;45919;51.420;5.454;2022-10-04T06:29:35;101992.72;;;10.32;89.93
59029;BME280;45919;51.420;5.454;2022-10-04T06:31:22;101996.31;;;10.35;89.86
59029;BME280;45919;51.420;5.454;2022-10-04T06:41:15;101992.81;;;10.59;89.13
59029;BME280;45919;51.420;5.454;2022-10-04T06:46:20;101981.03;;;10.72;88.42
59029;BME280;45919;51.420;5.454;2022-10-04T06:50:29;101976.97;;;10.82;87.63
59029;BME280;45919;51.420;5.454;2022-10-04T06:56:12;101994.56;;;10.86;87.56
59029;BME280;45919;51.420;5.454;2022-10-04T07:01:28;101989.13;;;10.80;87.23
59029;BME280;45919;51.420;5.454;2022-10-04T07:02:34;101984.34;;;10.67;87.00
59029;BME280;45919;51.420;5.454;2022-10-04T07:03:46;101979.16;;;10.68;86.90
59029;BME280;45919;51.420;5.454;2022-10-04T07:05:02;101982.75;;;10.72;86.89
59029;BME280;45919;51.420;5.454;2022-10-04T07:06:09;101981.56;;;10.62;86.70
59029;BME280;45919;51.420;5.454;2022-10-04T07:09:42;101993.63;;;10.58;86.92
59029;BME280;45919;51.420;5.454;2022-10-04T07:10:52;101990.06;;;10.56;86.91
59029;BME280;45919;51.420;5.454;2022-10-04T07:12:04;101990.28;;;10.62;87.19
59029;BME280;45919;51.420;5.454;2022-10-04T07:14:28;101991.28;;;10.66;87.18
59029;BME280;45919;51.420;5.454;2022-10-04T07:15:43;101984.13;;;10.60;87.36
59029;BME280;45919;51.420;5.454;2022-10-04T07:16:48;101971.78;;;10.56;87.33
59029;BME280;45919;51.420;5.454;2022-10-04T07:17:52;101961.09;;;10.48;87.09
59029;BME280;45919;51.420;5.454;2022-10-04T07:19:15;101980.09;;;10.70;87.58
59029;BME280;45919;51.420;5.454;2022-10-04T07:20:30;101974.69;;;10.66;87.14
59029;BME280;45919;51.420;5.454;2022-10-04T07:22:02;101971.56;;;10.76;87.35